createdAt,value
2023-02-02T00:00:57.554Z,57.20
2023-02-02T00:01:57.485Z,57.20
2023-02-02T00:02:57.505Z,56.88
2023-02-02T00:03:57.506Z,56.88
2023-02-02T00:04:57.474Z,57.52
2023-02-02T00:05:57.495Z,56.88
2023-02-02T00:06:57.453Z,56.88
2023-02-02T00:07:57.439Z,57.04
2023-02-02T00:08:57.464Z,57.20
2023-02-02T00:09:57.440Z,56.88
2023-02-02T00:10:57.453Z,56.72
2023-02-02T00:11:57.419Z,56.72
2023-02-02T00:12:57.421Z,56.72
2023-02-02T00:13:57.464Z,56.72
2023-02-02T00:14:57.403Z,56.88
2023-02-02T00:15:57.425Z,56.88
2023-02-02T00:16:57.589Z,57.20
2023-02-02T00:17:57.392Z,57.20
2023-02-02T00:18:57.411Z,56.88
2023-02-02T00:19:57.390Z,57.69
2023-02-02T00:20:57.376Z,56.72
2023-02-02T00:21:57.395Z,57.04
2023-02-02T00:22:57.359Z,57.20
2023-02-02T00:23:57.365Z,56.56
2023-02-02T00:24:57.341Z,56.88
2023-02-02T00:25:57.345Z,57.20
2023-02-02T00:26:57.357Z,57.36
2023-02-02T00:27:57.321Z,56.72
2023-02-02T00:28:57.323Z,56.24
2023-02-02T00:29:57.311Z,56.88
2023-02-02T00:30:57.380Z,56.72
2023-02-02T00:31:57.345Z,56.72
2023-02-02T00:32:57.331Z,56.56
2023-02-02T00:33:57.297Z,56.40
2023-02-02T00:34:57.305Z,56.40
2023-02-02T00:35:58.317Z,56.88
2023-02-02T00:36:57.274Z,56.40
2023-02-02T00:37:57.266Z,57.04
2023-02-02T00:38:57.290Z,57.20
2023-02-02T00:39:57.281Z,56.88
2023-02-02T00:40:57.260Z,57.04
2023-02-02T00:41:57.263Z,57.04
2023-02-02T00:42:57.264Z,56.40
2023-02-02T00:43:57.259Z,57.20
2023-02-02T00:44:57.268Z,58.97
2023-02-02T00:45:57.373Z,57.69
2023-02-02T00:46:57.212Z,57.69
2023-02-02T00:47:57.216Z,56.88
2023-02-02T00:48:57.219Z,57.04
2023-02-02T00:49:57.246Z,56.72
2023-02-02T00:50:57.205Z,57.36
2023-02-02T00:51:57.212Z,57.36
2023-02-02T00:52:57.231Z,57.36
2023-02-02T00:53:57.191Z,57.20
2023-02-02T00:54:57.218Z,56.24
2023-02-02T00:55:57.169Z,57.36
2023-02-02T00:56:57.196Z,57.20
2023-02-02T00:57:57.184Z,57.36
2023-02-02T00:58:57.183Z,56.88
2023-02-02T00:59:57.203Z,56.88
2023-02-02T01:00:57.175Z,57.85
2023-02-02T01:01:57.228Z,57.20
2023-02-02T01:02:57.791Z,57.52
2023-02-02T01:03:57.127Z,56.88
2023-02-02T01:04:57.144Z,56.88
2023-02-02T01:05:57.150Z,57.20
2023-02-02T01:06:57.127Z,57.36
2023-02-02T01:07:57.078Z,56.88
2023-02-02T01:08:57.095Z,56.72
2023-02-02T01:09:57.096Z,57.04
2023-02-02T01:10:57.108Z,58.17
2023-02-02T01:11:57.126Z,57.36
2023-02-02T01:12:57.053Z,57.52
2023-02-02T01:13:57.053Z,58.01
2023-02-02T01:14:57.050Z,56.07
2023-02-02T01:15:57.137Z,57.20
2023-02-02T01:16:57.033Z,57.69
2023-02-02T01:17:57.045Z,57.36
2023-02-02T01:18:57.088Z,57.36
2023-02-02T01:19:57.050Z,57.52
2023-02-02T01:20:57.030Z,57.36
2023-02-02T01:21:57.038Z,57.52
2023-02-02T01:22:57.010Z,57.85
2023-02-02T01:23:57.029Z,57.85
2023-02-02T01:24:57.024Z,57.69
2023-02-02T01:25:56.994Z,57.52
2023-02-02T01:26:57.035Z,57.52
2023-02-02T01:27:56.960Z,57.20
2023-02-02T01:28:57.962Z,57.36
2023-02-02T01:29:56.982Z,57.85
2023-02-02T01:30:57.001Z,57.69
2023-02-02T01:31:57.035Z,57.85
2023-02-02T01:32:56.937Z,57.69
2023-02-02T01:33:56.931Z,57.04
2023-02-02T01:34:56.931Z,57.52
2023-02-02T01:35:56.959Z,57.69
2023-02-02T01:36:56.925Z,57.69
2023-02-02T01:37:56.923Z,57.36
2023-02-02T01:38:56.947Z,57.36
2023-02-02T01:39:56.923Z,57.20
2023-02-02T01:40:56.893Z,57.36
2023-02-02T01:41:56.907Z,57.36
2023-02-02T01:42:56.910Z,57.52
2023-02-02T01:43:56.871Z,57.52
2023-02-02T01:44:56.884Z,57.52
2023-02-02T01:45:56.914Z,57.69
2023-02-02T01:46:56.864Z,57.36
2023-02-02T01:47:56.858Z,57.52
2023-02-02T01:48:56.863Z,57.69
2023-02-02T01:49:56.916Z,57.69
2023-02-02T01:50:56.877Z,57.20
2023-02-02T01:51:56.832Z,57.52
2023-02-02T01:52:56.843Z,57.85
2023-02-02T01:53:56.838Z,58.01
2023-02-02T01:54:56.887Z,57.36
2023-02-02T01:55:56.814Z,58.01
2023-02-02T01:56:56.800Z,57.85
2023-02-02T01:57:56.814Z,58.01
2023-02-02T01:58:56.794Z,57.69
2023-02-02T01:59:56.851Z,57.69
2023-02-02T02:00:56.824Z,57.20
2023-02-02T02:01:56.849Z,57.36
2023-02-02T02:02:56.775Z,57.52
2023-02-02T02:03:56.755Z,57.69
2023-02-02T02:04:56.791Z,57.69
2023-02-02T02:05:56.808Z,57.69
2023-02-02T02:06:56.766Z,57.04
2023-02-02T02:07:56.751Z,58.01
2023-02-02T02:08:56.797Z,58.01
2023-02-02T02:09:56.714Z,57.04
2023-02-02T02:10:56.742Z,57.52
2023-02-02T02:11:56.752Z,57.85
2023-02-02T02:12:56.696Z,57.52
2023-02-02T02:13:56.743Z,57.69
2023-02-02T02:14:56.708Z,58.01
2023-02-02T02:15:56.692Z,57.85
2023-02-02T02:16:56.730Z,57.69
2023-02-02T02:17:56.660Z,57.69
2023-02-02T02:18:56.667Z,57.69
2023-02-02T02:19:56.689Z,57.69
2023-02-02T02:20:56.653Z,57.36
2023-02-02T02:21:56.645Z,57.69
2023-02-02T02:22:56.645Z,57.36
2023-02-02T02:23:56.629Z,57.36
2023-02-02T02:24:56.616Z,57.69
2023-02-02T02:25:56.624Z,57.20
2023-02-02T02:26:56.641Z,57.69
2023-02-02T02:27:56.606Z,57.04
2023-02-02T02:28:56.622Z,57.69
2023-02-02T02:29:56.617Z,57.52
2023-02-02T02:30:56.680Z,57.04
2023-02-02T02:31:56.596Z,59.94
2023-02-02T02:32:56.589Z,57.52
2023-02-02T02:33:56.604Z,57.69
2023-02-02T02:34:56.586Z,57.69
2023-02-02T02:35:56.573Z,57.85
2023-02-02T02:36:56.580Z,58.01
2023-02-02T02:37:56.544Z,57.85
2023-02-02T02:38:56.533Z,57.69
2023-02-02T02:39:56.533Z,57.52
2023-02-02T02:40:56.536Z,57.52
2023-02-02T02:41:56.538Z,57.20
2023-02-02T02:42:56.543Z,58.01
2023-02-02T02:43:56.515Z,58.33
2023-02-02T02:44:56.502Z,57.52
2023-02-02T02:45:56.504Z,57.52
2023-02-02T02:46:56.541Z,57.36
2023-02-02T02:47:56.525Z,57.52
2023-02-02T02:48:56.475Z,57.69
2023-02-02T02:49:56.496Z,57.85
2023-02-02T02:50:56.485Z,57.36
2023-02-02T02:51:56.471Z,57.52
2023-02-02T02:52:56.471Z,57.85
2023-02-02T02:53:56.466Z,57.04
2023-02-02T02:54:56.468Z,57.69
2023-02-02T02:55:56.426Z,57.36
2023-02-02T02:56:56.435Z,57.36
2023-02-02T02:57:56.429Z,57.69
2023-02-02T02:58:56.489Z,57.04
2023-02-02T02:59:56.431Z,57.36
2023-02-02T03:00:56.418Z,57.52
2023-02-02T03:01:56.402Z,57.52
2023-02-02T03:02:56.439Z,58.33
2023-02-02T03:03:56.421Z,57.36
2023-02-02T03:04:56.392Z,58.01
2023-02-02T03:05:56.379Z,58.01
2023-02-02T03:06:56.383Z,58.49
2023-02-02T03:07:56.419Z,57.85
2023-02-02T03:08:56.376Z,57.36
2023-02-02T03:09:56.365Z,57.36
2023-02-02T03:10:56.364Z,57.36
2023-02-02T03:11:56.360Z,57.69
2023-02-02T03:12:56.331Z,57.69
2023-02-02T03:13:56.335Z,57.04
2023-02-02T03:14:56.346Z,57.52
2023-02-02T03:15:56.372Z,57.04
2023-02-02T03:16:56.333Z,58.65
2023-02-02T03:17:56.322Z,57.85
2023-02-02T03:18:56.299Z,57.52
2023-02-02T03:19:56.298Z,57.20
2023-02-02T03:20:56.308Z,57.20
2023-02-02T03:21:56.280Z,57.36
2023-02-02T03:22:56.284Z,57.69
2023-02-02T03:23:56.281Z,57.85
2023-02-02T03:24:56.266Z,57.85
2023-02-02T03:25:56.313Z,57.69
2023-02-02T03:26:56.244Z,57.20
2023-02-02T03:27:56.319Z,57.69
2023-02-02T03:28:56.253Z,57.85
2023-02-02T03:29:56.251Z,57.36
2023-02-02T03:30:56.407Z,57.04
2023-02-02T03:31:56.219Z,57.20
2023-02-02T03:32:56.250Z,58.97
2023-02-02T03:33:56.246Z,58.01
2023-02-02T03:34:56.239Z,60.75
2023-02-02T03:35:56.227Z,58.01
2023-02-02T03:36:56.213Z,58.17
2023-02-02T03:37:56.216Z,58.33
2023-02-02T03:38:56.193Z,62.20
2023-02-02T03:39:56.175Z,57.69
2023-02-02T03:40:56.188Z,57.52
2023-02-02T03:41:56.152Z,57.85
2023-02-02T03:42:56.151Z,57.36
2023-02-02T03:43:56.189Z,57.52
2023-02-02T03:44:57.145Z,58.01
2023-02-02T03:45:56.175Z,57.69
2023-02-02T03:46:56.160Z,57.52
2023-02-02T03:47:56.135Z,58.01
2023-02-02T03:48:56.148Z,58.01
2023-02-02T03:49:56.130Z,58.97
2023-02-02T03:50:56.094Z,57.69
2023-02-02T03:51:56.119Z,57.20
2023-02-02T03:52:56.101Z,60.91
2023-02-02T03:53:56.096Z,58.49
2023-02-02T03:54:56.114Z,57.20
2023-02-02T03:55:56.087Z,58.17
2023-02-02T03:56:56.073Z,57.36
2023-02-02T03:57:56.086Z,57.69
2023-02-02T03:58:56.058Z,57.36
2023-02-02T03:59:56.108Z,58.01
2023-02-02T04:00:56.074Z,57.52
2023-02-02T04:01:56.106Z,57.69
2023-02-02T04:02:56.140Z,57.69
2023-02-02T04:03:56.024Z,58.01
2023-02-02T04:04:56.041Z,57.52
2023-02-02T04:05:56.046Z,58.33
2023-02-02T04:06:56.014Z,57.85
2023-02-02T04:07:56.049Z,57.69
2023-02-02T04:08:56.013Z,58.33
2023-02-02T04:09:56.002Z,57.36
2023-02-02T04:10:56.001Z,61.87
2023-02-02T04:11:56.027Z,59.14
2023-02-02T04:12:56.000Z,65.26
2023-02-02T04:13:55.976Z,57.36
2023-02-02T04:14:55.964Z,57.69
2023-02-02T04:15:56.978Z,59.46
2023-02-02T04:16:56.001Z,59.46
2023-02-02T04:17:55.955Z,57.85
2023-02-02T04:18:55.960Z,58.49
2023-02-02T04:19:55.965Z,60.59
2023-02-02T04:20:55.977Z,58.65
2023-02-02T04:21:55.958Z,58.01
2023-02-02T04:22:55.969Z,61.23
2023-02-02T04:23:56.936Z,58.01
2023-02-02T04:24:55.956Z,58.01
2023-02-02T04:25:55.932Z,60.42
2023-02-02T04:26:55.933Z,61.07
2023-02-02T04:27:55.901Z,59.14
2023-02-02T04:28:55.896Z,60.59
2023-02-02T04:29:55.886Z,60.26
2023-02-02T04:30:55.924Z,59.30
2023-02-02T04:31:55.912Z,60.75
2023-02-02T04:32:55.879Z,59.94
2023-02-02T04:33:56.752Z,60.91
2023-02-02T04:34:55.862Z,58.33
2023-02-02T04:35:55.887Z,58.01
2023-02-02T04:36:55.833Z,61.55
2023-02-02T04:37:55.850Z,64.13
2023-02-02T04:38:55.843Z,58.01
2023-02-02T04:39:55.854Z,58.49
2023-02-02T04:40:55.809Z,58.33
2023-02-02T04:41:55.863Z,60.59
2023-02-02T04:42:55.831Z,62.36
2023-02-02T04:43:55.808Z,63.81
2023-02-02T04:44:55.812Z,66.71
2023-02-02T04:45:55.840Z,63.65
2023-02-02T04:46:55.791Z,61.23
2023-02-02T04:47:55.761Z,63.49
2023-02-02T04:48:55.799Z,58.81
2023-02-02T04:49:55.769Z,61.39
2023-02-02T04:50:55.786Z,64.13
2023-02-02T04:51:55.802Z,61.87
2023-02-02T04:52:56.732Z,62.68
2023-02-02T04:53:55.737Z,65.10
2023-02-02T04:54:55.753Z,62.36
2023-02-02T04:55:55.783Z,58.33
2023-02-02T04:56:55.732Z,57.20
2023-02-02T04:57:55.711Z,57.69
2023-02-02T04:58:55.716Z,61.55
2023-02-02T04:59:55.730Z,58.01
2023-02-02T05:00:55.745Z,58.01
2023-02-02T05:01:55.714Z,59.14
2023-02-02T05:02:55.679Z,58.65
2023-02-02T05:03:55.702Z,64.94
2023-02-02T05:04:55.671Z,60.59
2023-02-02T05:05:55.746Z,60.10
2023-02-02T05:06:55.672Z,57.69
2023-02-02T05:07:55.665Z,58.17
2023-02-02T05:08:55.686Z,59.30
2023-02-02T05:09:55.637Z,61.07
2023-02-02T05:10:55.630Z,58.81
2023-02-02T05:11:55.656Z,59.94
2023-02-02T05:12:55.670Z,67.35
2023-02-02T05:13:55.617Z,66.39
2023-02-02T05:14:55.634Z,64.94
2023-02-02T05:15:55.611Z,63.16
2023-02-02T05:16:55.603Z,61.87
2023-02-02T05:17:55.654Z,62.84
2023-02-02T05:18:55.605Z,66.06
2023-02-02T05:19:55.581Z,60.91
2023-02-02T05:20:55.586Z,61.87
2023-02-02T05:21:55.566Z,62.36
2023-02-02T05:22:55.649Z,60.10
2023-02-02T05:23:55.571Z,60.59
2023-02-02T05:24:55.539Z,61.07
2023-02-02T05:25:55.538Z,64.29
2023-02-02T05:26:55.559Z,61.07
2023-02-02T05:27:55.596Z,64.61
2023-02-02T05:28:55.838Z,63.00
2023-02-02T05:29:55.513Z,62.04
2023-02-02T05:30:56.264Z,63.16
2023-02-02T05:31:55.598Z,66.87
2023-02-02T05:32:56.245Z,61.07
2023-02-02T05:33:55.532Z,63.00
2023-02-02T05:34:55.489Z,60.91
2023-02-02T05:35:55.477Z,62.36
2023-02-02T05:36:55.501Z,62.20
2023-02-02T05:37:56.926Z,62.84
2023-02-02T05:38:55.466Z,67.68
2023-02-02T05:39:55.467Z,59.14
2023-02-02T05:40:55.459Z,63.65
2023-02-02T05:41:55.451Z,68.16
2023-02-02T05:42:55.450Z,64.13
2023-02-02T05:43:55.487Z,61.07
2023-02-02T05:44:55.448Z,60.59
2023-02-02T05:45:55.494Z,62.52
2023-02-02T05:46:55.417Z,73.64
2023-02-02T05:47:55.467Z,66.39
2023-02-02T05:48:55.444Z,69.45
2023-02-02T05:49:55.411Z,66.87
2023-02-02T05:50:55.421Z,63.97
2023-02-02T05:51:55.439Z,66.06
2023-02-02T05:52:55.472Z,66.06
2023-02-02T05:53:55.376Z,67.03
2023-02-02T05:54:55.412Z,68.64
2023-02-02T05:55:56.263Z,65.10
2023-02-02T05:56:55.353Z,62.68
2023-02-02T05:57:55.393Z,64.78
2023-02-02T05:58:55.356Z,71.70
2023-02-02T05:59:55.484Z,67.35
2023-02-02T06:00:56.692Z,63.00
2023-02-02T06:01:56.336Z,65.90
2023-02-02T06:02:55.336Z,66.71
2023-02-02T06:03:55.405Z,67.68
2023-02-02T06:04:55.361Z,71.22
2023-02-02T06:05:55.343Z,66.06
2023-02-02T06:06:55.294Z,62.04
2023-02-02T06:07:55.317Z,60.42
2023-02-02T06:08:55.303Z,64.78
2023-02-02T06:09:55.278Z,66.23
2023-02-02T06:10:55.289Z,69.29
2023-02-02T06:11:55.292Z,62.20
2023-02-02T06:12:55.287Z,66.87
2023-02-02T06:13:55.271Z,67.51
2023-02-02T06:14:55.246Z,65.10
2023-02-02T06:15:55.246Z,72.03
2023-02-02T06:16:55.264Z,67.68
2023-02-02T06:17:55.233Z,60.75
2023-02-02T06:18:55.252Z,62.68
2023-02-02T06:19:55.237Z,65.90
2023-02-02T06:20:55.212Z,60.91
2023-02-02T06:21:55.260Z,68.96
2023-02-02T06:22:55.196Z,68.48
2023-02-02T06:23:55.752Z,65.58
2023-02-02T06:24:55.209Z,67.19
2023-02-02T06:25:55.200Z,68.32
2023-02-02T06:26:55.243Z,71.54
2023-02-02T06:27:55.189Z,65.42
2023-02-02T06:28:55.188Z,70.42
2023-02-02T06:29:55.176Z,61.87
2023-02-02T06:30:55.284Z,67.35
2023-02-02T06:31:55.296Z,68.64
2023-02-02T06:32:55.185Z,65.90
2023-02-02T06:33:55.160Z,66.23
2023-02-02T06:34:55.147Z,71.87
2023-02-02T06:35:55.172Z,70.58
2023-02-02T06:36:55.134Z,73.15
2023-02-02T06:37:55.117Z,66.06
2023-02-02T06:38:55.156Z,64.94
2023-02-02T06:39:55.105Z,69.13
2023-02-02T06:40:55.128Z,74.12
2023-02-02T06:41:55.109Z,68.48
2023-02-02T06:42:55.080Z,73.32
2023-02-02T06:43:55.112Z,70.74
2023-02-02T06:44:55.056Z,69.77
2023-02-02T06:45:55.136Z,65.10
2023-02-02T06:46:55.069Z,62.52
2023-02-02T06:47:55.095Z,68.00
2023-02-02T06:48:55.074Z,71.06
2023-02-02T06:49:55.065Z,68.32
2023-02-02T06:50:55.065Z,68.16
2023-02-02T06:51:55.050Z,71.22
2023-02-02T06:52:55.107Z,68.16
2023-02-02T06:53:55.711Z,71.38
2023-02-02T06:54:55.104Z,61.71
2023-02-02T06:55:55.016Z,70.42
2023-02-02T06:56:55.045Z,71.54
2023-02-02T06:57:55.000Z,68.64
2023-02-02T06:58:54.976Z,66.71
2023-02-02T06:59:54.996Z,72.19
2023-02-02T07:00:54.972Z,66.87
2023-02-02T07:01:55.114Z,61.07
2023-02-02T07:02:55.016Z,68.64
2023-02-02T07:03:54.969Z,66.06
2023-02-02T07:04:54.970Z,63.00
2023-02-02T07:05:54.967Z,69.93
2023-02-02T07:06:54.959Z,64.13
2023-02-02T07:07:54.953Z,72.03
2023-02-02T07:09:01.774Z,64.94
2023-02-02T07:09:58.269Z,72.51
2023-02-02T07:11:15.185Z,62.68
2023-02-02T07:11:56.006Z,66.23
2023-02-02T07:12:54.899Z,63.00
2023-02-02T07:13:54.905Z,71.54
2023-02-02T07:14:54.903Z,72.03
2023-02-02T07:15:54.937Z,68.64
2023-02-02T07:16:54.917Z,72.19
2023-02-02T07:17:55.876Z,68.80
2023-02-02T07:18:54.909Z,69.45
2023-02-02T07:19:54.872Z,64.61
2023-02-02T07:20:54.902Z,66.55
2023-02-02T07:21:55.105Z,70.25
2023-02-02T07:22:54.870Z,68.80
2023-02-02T07:23:54.872Z,67.19
2023-02-02T07:24:54.848Z,65.42
2023-02-02T07:25:54.872Z,70.90
2023-02-02T07:26:54.873Z,66.23
2023-02-02T07:27:54.854Z,68.96
2023-02-02T07:28:54.816Z,68.32
2023-02-02T07:29:54.808Z,70.74
2023-02-02T07:30:54.948Z,70.42
2023-02-02T07:31:54.828Z,68.48
2023-02-02T07:32:54.824Z,71.06
2023-02-02T07:33:54.784Z,65.74
2023-02-02T07:34:54.770Z,73.80
2023-02-02T07:35:54.879Z,71.06
2023-02-02T07:36:54.776Z,72.03
2023-02-02T07:37:54.787Z,64.94
2023-02-02T07:38:54.764Z,67.68
2023-02-02T07:39:54.760Z,74.12
2023-02-02T07:40:54.760Z,69.29
2023-02-02T07:41:54.736Z,64.94
2023-02-02T07:42:54.755Z,71.87
2023-02-02T07:43:54.725Z,64.45
2023-02-02T07:44:54.731Z,68.16
2023-02-02T07:45:54.732Z,66.55
2023-02-02T07:46:54.739Z,63.16
2023-02-02T07:47:55.720Z,61.87
2023-02-02T07:48:54.717Z,67.51
2023-02-02T07:49:54.682Z,68.96
2023-02-02T07:50:54.670Z,73.32
2023-02-02T07:51:54.678Z,67.19
2023-02-02T07:52:55.284Z,67.03
2023-02-02T07:53:54.667Z,68.80
2023-02-02T07:55:02.540Z,62.84
2023-02-02T07:55:56.637Z,66.87
2023-02-02T07:56:54.646Z,64.78
2023-02-02T07:57:54.631Z,67.84
2023-02-02T07:58:54.662Z,68.96
2023-02-02T07:59:54.661Z,67.03
2023-02-02T08:00:54.653Z,59.14
2023-02-02T08:01:54.622Z,59.94
2023-02-02T08:02:54.668Z,65.10
2023-02-02T08:03:54.586Z,59.46
2023-02-02T08:04:54.595Z,67.68
2023-02-02T08:05:54.604Z,61.07
2023-02-02T08:06:54.567Z,64.78
2023-02-02T08:07:54.571Z,71.06
2023-02-02T08:08:54.617Z,70.58
2023-02-02T08:09:54.573Z,65.26
2023-02-02T08:10:54.611Z,61.55
2023-02-02T08:11:55.535Z,73.15
2023-02-02T08:12:54.531Z,71.38
2023-02-02T08:13:54.603Z,69.45
2023-02-02T08:14:54.515Z,69.61
2023-02-02T08:15:54.538Z,68.16
2023-02-02T08:16:54.512Z,66.06
2023-02-02T08:17:54.771Z,65.26
2023-02-02T08:18:54.503Z,62.36
2023-02-02T08:19:54.493Z,70.42
2023-02-02T08:20:54.491Z,67.35
2023-02-02T08:21:54.485Z,67.19
2023-02-02T08:22:54.513Z,62.36
2023-02-02T08:23:54.481Z,73.48
2023-02-02T08:24:54.509Z,68.48
2023-02-02T08:25:54.451Z,62.36
2023-02-02T08:26:54.540Z,62.84
2023-02-02T08:27:54.601Z,76.54
2023-02-02T08:28:54.469Z,67.68
2023-02-02T08:29:54.421Z,65.26
2023-02-02T08:30:54.454Z,67.19
2023-02-02T08:31:54.467Z,67.19
2023-02-02T08:32:54.441Z,69.45
2023-02-02T08:33:54.413Z,72.51
2023-02-02T08:34:54.397Z,62.04
2023-02-02T08:35:54.428Z,68.80
2023-02-02T08:36:54.392Z,64.13
2023-02-02T08:37:54.486Z,68.16
2023-02-02T08:38:54.389Z,63.33
2023-02-02T08:39:54.390Z,68.64
2023-02-02T08:40:54.384Z,69.93
2023-02-02T08:41:54.353Z,61.55
2023-02-02T08:42:55.374Z,68.48
2023-02-02T08:43:54.365Z,62.20
2023-02-02T08:46:02.509Z,64.61
2023-02-02T08:46:04.420Z,62.20
2023-02-02T08:46:55.407Z,67.19
2023-02-02T08:48:10.459Z,68.32
2023-02-02T08:48:56.325Z,69.45
2023-02-02T08:49:54.334Z,68.00
2023-02-02T08:50:54.299Z,69.45
2023-02-02T08:51:55.111Z,69.29
2023-02-02T08:52:54.312Z,68.96
2023-02-02T08:53:54.287Z,65.74
2023-02-02T08:54:54.284Z,64.13
2023-02-02T08:55:54.271Z,69.45
2023-02-02T08:56:54.275Z,68.48
2023-02-02T08:57:54.275Z,64.13
2023-02-02T08:58:54.365Z,67.51
2023-02-02T08:59:54.247Z,71.87
2023-02-02T09:00:54.298Z,64.94
2023-02-02T09:01:54.321Z,63.65
2023-02-02T09:02:54.250Z,66.39
2023-02-02T09:03:54.259Z,66.39
2023-02-02T09:04:54.232Z,70.90
2023-02-02T09:05:54.298Z,60.91
2023-02-02T09:06:54.309Z,66.71
2023-02-02T09:07:54.197Z,65.90
2023-02-02T09:08:54.248Z,68.64
2023-02-02T09:09:54.217Z,68.48
2023-02-02T09:10:54.179Z,69.93
2023-02-02T09:11:54.200Z,59.78
2023-02-02T09:12:54.194Z,65.90
2023-02-02T09:13:54.165Z,65.74
2023-02-02T09:14:54.196Z,69.77
2023-02-02T09:15:54.217Z,64.29
2023-02-02T09:16:54.242Z,70.25
2023-02-02T09:17:54.177Z,63.49
2023-02-02T09:18:54.136Z,65.10
2023-02-02T09:19:54.147Z,66.87
2023-02-02T09:20:54.130Z,64.13
2023-02-02T09:21:54.115Z,64.13
2023-02-02T09:22:54.745Z,59.46
2023-02-02T09:23:54.130Z,70.42
2023-02-02T09:24:54.107Z,65.90
2023-02-02T09:25:54.114Z,63.81
2023-02-02T09:26:54.136Z,61.55
2023-02-02T09:27:54.121Z,65.26
2023-02-02T09:28:54.079Z,66.39
2023-02-02T09:29:54.078Z,62.68
2023-02-02T09:30:54.105Z,66.71
2023-02-02T09:31:54.080Z,62.36
2023-02-02T09:32:54.053Z,71.22
2023-02-02T09:33:54.101Z,68.48
2023-02-02T09:34:54.085Z,70.42
2023-02-02T09:35:54.049Z,64.94
2023-02-02T09:36:54.058Z,60.75
2023-02-02T09:37:54.069Z,67.03
2023-02-02T09:38:54.021Z,63.16
2023-02-02T09:39:54.042Z,65.58
2023-02-02T09:40:54.034Z,63.65
2023-02-02T09:41:53.994Z,60.91
2023-02-02T09:42:53.989Z,59.94
2023-02-02T09:43:53.995Z,63.65
2023-02-02T09:44:53.980Z,60.59
2023-02-02T09:45:54.016Z,64.29
2023-02-02T09:46:53.998Z,62.20
2023-02-02T09:47:53.964Z,63.97
2023-02-02T09:48:54.002Z,68.32
2023-02-02T09:49:54.976Z,63.97
2023-02-02T09:50:53.961Z,71.22
2023-02-02T09:51:54.025Z,71.70
2023-02-02T09:52:53.944Z,74.28
2023-02-02T09:53:55.917Z,67.51
2023-02-02T09:54:54.980Z,66.06
2023-02-02T09:55:53.933Z,67.68
2023-02-02T09:56:53.943Z,60.59
2023-02-02T09:57:53.942Z,62.68
2023-02-02T09:58:54.732Z,61.55
2023-02-02T09:59:53.904Z,62.04
2023-02-02T10:00:54.019Z,72.51
2023-02-02T10:01:53.937Z,66.39
2023-02-02T10:02:53.874Z,68.00
2023-02-02T10:03:53.941Z,59.94
2023-02-02T10:04:53.867Z,67.35
2023-02-02T10:05:53.857Z,61.87
2023-02-02T10:06:53.849Z,65.58
2023-02-02T10:07:53.844Z,70.74
2023-02-02T10:08:53.872Z,61.23
2023-02-02T10:09:53.982Z,68.96
2023-02-02T10:10:53.837Z,63.97
2023-02-02T10:11:53.832Z,62.84
2023-02-02T10:12:53.822Z,68.48
2023-02-02T10:13:53.796Z,69.77
2023-02-02T10:14:53.850Z,66.55
2023-02-02T10:15:53.916Z,72.83
2023-02-02T10:16:53.828Z,67.19
2023-02-02T10:17:53.792Z,64.61
2023-02-02T10:18:53.784Z,68.96
2023-02-02T10:19:53.788Z,72.99
2023-02-02T10:20:53.778Z,71.54
2023-02-02T10:21:53.766Z,66.55
2023-02-02T10:22:53.855Z,65.26
2023-02-02T10:23:53.761Z,67.35
2023-02-02T10:24:53.757Z,66.39
2023-02-02T10:25:53.729Z,63.81
2023-02-02T10:26:53.875Z,68.96
2023-02-02T10:27:53.758Z,65.90
2023-02-02T10:28:53.732Z,67.03
2023-02-02T10:29:53.759Z,64.45
2023-02-02T10:30:53.904Z,66.23
2023-02-02T10:31:53.829Z,68.00
2023-02-02T10:32:53.705Z,67.19
2023-02-02T10:33:53.738Z,72.35
2023-02-02T10:35:06.896Z,74.44
2023-02-02T10:35:55.712Z,64.13
2023-02-02T10:36:53.665Z,69.77
2023-02-02T10:37:53.660Z,67.84
2023-02-02T10:38:53.684Z,72.19
2023-02-02T10:39:53.676Z,69.93
2023-02-02T10:40:53.650Z,71.70
2023-02-02T10:41:53.664Z,71.54
2023-02-02T10:42:53.634Z,64.94
2023-02-02T10:43:53.647Z,65.42
2023-02-02T10:44:53.675Z,67.03
2023-02-02T10:45:53.701Z,66.23
2023-02-02T10:46:53.602Z,70.42
2023-02-02T10:47:53.634Z,69.13
2023-02-02T10:48:53.611Z,69.45
2023-02-02T10:49:56.166Z,67.19
2023-02-02T10:50:54.613Z,64.29
2023-02-02T10:51:53.583Z,64.13
2023-02-02T10:52:53.605Z,68.00
2023-02-02T10:53:53.648Z,73.32
2023-02-02T10:54:57.817Z,68.96
2023-02-02T10:55:54.549Z,74.28
2023-02-02T10:56:53.551Z,68.64
2023-02-02T10:57:54.280Z,65.26
2023-02-02T10:58:53.547Z,70.42
2023-02-02T10:59:53.555Z,69.45
2023-02-02T11:00:53.573Z,69.61
2023-02-02T11:01:53.630Z,63.97
2023-02-02T11:02:53.629Z,60.91
2023-02-02T11:03:53.551Z,64.78
2023-02-02T11:04:53.511Z,68.32
2023-02-02T11:05:53.544Z,68.48
2023-02-02T11:06:53.579Z,69.45
2023-02-02T11:07:54.220Z,69.13
2023-02-02T11:08:53.522Z,67.35
2023-02-02T11:09:53.536Z,66.39
2023-02-02T11:10:53.575Z,66.39
2023-02-02T11:11:53.475Z,70.25
2023-02-02T11:12:53.487Z,67.51
2023-02-02T11:13:53.485Z,64.78
2023-02-02T11:14:53.611Z,67.35
2023-02-02T11:15:53.483Z,74.28
2023-02-02T11:16:53.493Z,70.42
2023-02-02T11:17:53.492Z,64.45
2023-02-02T11:18:53.428Z,65.74
2023-02-02T11:19:53.407Z,64.61
2023-02-02T11:20:53.534Z,70.58
2023-02-02T11:21:53.432Z,66.23
2023-02-02T11:22:53.428Z,64.94
2023-02-02T11:23:53.443Z,65.74
2023-02-02T11:24:53.441Z,71.70
2023-02-02T11:25:53.413Z,69.45
2023-02-02T11:26:53.456Z,65.74
2023-02-02T11:27:53.370Z,70.09
2023-02-02T11:28:53.822Z,68.80
2023-02-02T11:29:53.534Z,62.52
2023-02-02T11:30:53.503Z,65.74
2023-02-02T11:31:53.423Z,71.06
2023-02-02T11:32:53.341Z,70.74
2023-02-02T11:33:53.337Z,68.96
2023-02-02T11:34:53.541Z,68.64
2023-02-02T11:36:25.750Z,66.71
2023-02-02T11:36:53.294Z,69.77
2023-02-02T11:38:25.754Z,67.68
2023-02-02T11:39:26.748Z,73.80
2023-02-02T11:39:54.005Z,74.77
2023-02-02T11:40:54.322Z,64.61
2023-02-02T11:41:53.288Z,70.58
2023-02-02T11:42:53.263Z,68.48
2023-02-02T11:43:53.297Z,70.74
2023-02-02T11:44:53.289Z,62.84
2023-02-02T11:45:53.328Z,65.26
2023-02-02T11:46:53.394Z,62.04
2023-02-02T11:47:53.245Z,64.94
2023-02-02T11:48:53.240Z,68.00
2023-02-02T11:49:53.220Z,74.60
2023-02-02T11:50:53.269Z,67.68
2023-02-02T11:51:53.256Z,69.93
2023-02-02T11:52:53.211Z,68.48
2023-02-02T11:53:53.230Z,67.35
2023-02-02T11:54:53.215Z,64.61
2023-02-02T11:55:53.201Z,65.58
2023-02-02T11:56:53.225Z,63.49
2023-02-02T11:57:53.248Z,71.54
2023-02-02T11:58:53.189Z,70.74
2023-02-02T11:59:53.181Z,71.22
2023-02-02T12:00:53.190Z,63.65
2023-02-02T12:01:53.217Z,70.42
2023-02-02T12:02:53.229Z,65.10
2023-02-02T12:03:53.200Z,73.15
2023-02-02T12:04:53.152Z,64.61
2023-02-02T12:05:53.151Z,68.00
2023-02-02T12:06:54.290Z,65.58
2023-02-02T12:07:53.125Z,70.58
2023-02-02T12:08:53.142Z,63.16
2023-02-02T12:09:53.118Z,71.87
2023-02-02T12:10:53.131Z,67.51
2023-02-02T12:11:53.081Z,64.78
2023-02-02T12:12:53.100Z,73.64
2023-02-02T12:13:53.153Z,75.25
2023-02-02T12:14:53.097Z,70.74
2023-02-02T12:15:53.810Z,65.90
2023-02-02T12:16:53.075Z,67.68
2023-02-02T12:17:53.053Z,74.12
2023-02-02T12:18:53.041Z,69.61
2023-02-02T12:19:53.116Z,71.38
2023-02-02T12:20:53.047Z,71.70
2023-02-02T12:21:53.064Z,64.94
2023-02-02T12:22:53.039Z,71.22
2023-02-02T12:23:53.034Z,72.03
2023-02-02T12:24:53.065Z,70.25
2023-02-02T12:25:53.000Z,60.59
2023-02-02T12:26:53.060Z,72.35
2023-02-02T12:27:53.007Z,71.06
2023-02-02T12:28:53.018Z,70.25
2023-02-02T12:29:52.993Z,72.35
2023-02-02T12:30:53.048Z,67.51
2023-02-02T12:31:53.058Z,71.38
2023-02-02T12:32:52.963Z,66.55
2023-02-02T12:33:52.976Z,70.42
2023-02-02T12:34:52.982Z,74.28
2023-02-02T12:35:53.748Z,66.23
2023-02-02T12:36:52.948Z,68.32
2023-02-02T12:37:52.961Z,68.00
2023-02-02T12:38:52.959Z,71.54
2023-02-02T12:39:52.957Z,71.22
2023-02-02T12:40:52.910Z,63.97
2023-02-02T12:41:52.941Z,67.35
2023-02-02T12:42:52.933Z,71.38
2023-02-02T12:43:52.966Z,74.44
2023-02-02T12:44:52.885Z,71.54
2023-02-02T12:45:52.956Z,67.35
2023-02-02T12:46:52.898Z,72.99
2023-02-02T12:47:52.899Z,69.93
2023-02-02T12:48:52.864Z,73.64
2023-02-02T12:49:52.867Z,71.38
2023-02-02T12:50:52.892Z,69.61
2023-02-02T12:51:52.877Z,75.09
2023-02-02T12:52:52.905Z,70.58